sensor_id;sensor_type;location;lat;lon;timestamp;temperature;humidity
7240;DHT22;3661;53.288;10.458;2022-07-29T00:02:02;13.60;96.00
7240;DHT22;3661;53.288;10.458;2022-07-29T00:04:35;13.60;96.20
7240;DHT22;3661;53.288;10.458;2022-07-29T00:07:08;13.50;96.40
7240;DHT22;3661;53.288;10.458;2022-07-29T00:09:40;13.50;96.50
7240;DHT22;3661;53.288;10.458;2022-07-29T00:12:12;13.40;96.60
7240;DHT22;3661;53.288;10.458;2022-07-29T00:14:46;13.40;96.70
7240;DHT22;3661;53.288;10.458;2022-07-29T00:17:18;13.40;96.70
7240;DHT22;3661;53.288;10.458;2022-07-29T00:19:50;13.30;96.90
7240;DHT22;3661;53.288;10.458;2022-07-29T00:22:22;13.30;97.10
7240;DHT22;3661;53.288;10.458;2022-07-29T00:24:54;13.30;97.40
7240;DHT22;3661;53.288;10.458;2022-07-29T00:27:26;13.20;97.50
7240;DHT22;3661;53.288;10.458;2022-07-29T00:30:00;13.20;97.60
7240;DHT22;3661;53.288;10.458;2022-07-29T00:32:32;13.20;97.80
7240;DHT22;3661;53.288;10.458;2022-07-29T00:35:06;13.10;97.90
7240;DHT22;3661;53.288;10.458;2022-07-29T00:37:55;13.10;98.10
7240;DHT22;3661;53.288;10.458;2022-07-29T00:40:28;13.10;98.30
7240;DHT22;3661;53.288;10.458;2022-07-29T00:43:00;13.00;98.40
7240;DHT22;3661;53.288;10.458;2022-07-29T00:45:35;13.00;98.60
7240;DHT22;3661;53.288;10.458;2022-07-29T00:48:07;12.90;98.70
7240;DHT22;3661;53.288;10.458;2022-07-29T00:50:40;12.90;98.90
7240;DHT22;3661;53.288;10.458;2022-07-29T00:53:12;12.90;99.20
7240;DHT22;3661;53.288;10.458;2022-07-29T00:55:44;12.90;99.30
7240;DHT22;3661;53.288;10.458;2022-07-29T00:58:17;12.80;99.70
7240;DHT22;3661;53.288;10.458;2022-07-29T01:00:51;12.80;99.90
7240;DHT22;3661;53.288;10.458;2022-07-29T01:03:23;12.80;99.90
7240;DHT22;3661;53.288;10.458;2022-07-29T01:05:55;12.70;99.90
7240;DHT22;3661;53.288;10.458;2022-07-29T01:08:28;12.70;99.90
7240;DHT22;3661;53.288;10.458;2022-07-29T01:11:01;12.70;99.90
7240;DHT22;3661;53.288;10.458;2022-07-29T01:13:36;12.70;99.90
7240;DHT22;3661;53.288;10.458;2022-07-29T01:16:14;12.60;99.90
7240;DHT22;3661;53.288;10.458;2022-07-29T01:18:53;12.60;99.90
7240;DHT22;3661;53.288;10.458;2022-07-29T01:21:45;12.60;99.90
7240;DHT22;3661;53.288;10.458;2022-07-29T01:24:33;12.60;99.90
7240;DHT22;3661;53.288;10.458;2022-07-29T01:27:19;12.50;99.90
7240;DHT22;3661;53.288;10.458;2022-07-29T01:30:02;12.50;99.90
7240;DHT22;3661;53.288;10.458;2022-07-29T01:32:36;12.50;99.90
7240;DHT22;3661;53.288;10.458;2022-07-29T01:35:13;12.50;99.90
7240;DHT22;3661;53.288;10.458;2022-07-29T01:37:51;12.50;99.90
7240;DHT22;3661;53.288;10.458;2022-07-29T01:40:30;12.50;99.90
7240;DHT22;3661;53.288;10.458;2022-07-29T01:43:10;12.50;99.90
7240;DHT22;3661;53.288;10.458;2022-07-29T01:45:51;12.40;99.90
7240;DHT22;3661;53.288;10.458;2022-07-29T01:48:43;12.50;99.90
7240;DHT22;3661;53.288;10.458;2022-07-29T01:51:20;12.50;99.90
7240;DHT22;3661;53.288;10.458;2022-07-29T01:53:59;12.50;99.90
7240;DHT22;3661;53.288;10.458;2022-07-29T01:56:35;12.50;99.90
7240;DHT22;3661;53.288;10.458;2022-07-29T01:59:09;12.40;99.90
7240;DHT22;3661;53.288;10.458;2022-07-29T02:01:45;12.40;99.90
7240;DHT22;3661;53.288;10.458;2022-07-29T02:04:21;12.40;99.90
7240;DHT22;3661;53.288;10.458;2022-07-29T02:06:58;12.40;99.90
7240;DHT22;3661;53.288;10.458;2022-07-29T02:09:34;12.40;99.90
7240;DHT22;3661;53.288;10.458;2022-07-29T02:12:07;12.40;99.90
7240;DHT22;3661;53.288;10.458;2022-07-29T02:14:44;12.40;99.90
7240;DHT22;3661;53.288;10.458;2022-07-29T02:17:22;12.40;99.90
7240;DHT22;3661;53.288;10.458;2022-07-29T02:19:57;12.40;99.90
7240;DHT22;3661;53.288;10.458;2022-07-29T02:22:33;12.30;99.90
7240;DHT22;3661;53.288;10.458;2022-07-29T02:25:08;12.30;99.90
7240;DHT22;3661;53.288;10.458;2022-07-29T02:27:41;12.30;99.90
7240;DHT22;3661;53.288;10.458;2022-07-29T02:30:14;12.30;99.90
7240;DHT22;3661;53.288;10.458;2022-07-29T02:33:13;12.30;99.90
7240;DHT22;3661;53.288;10.458;2022-07-29T02:35:46;12.30;99.90
7240;DHT22;3661;53.288;10.458;2022-07-29T02:38:20;12.30;99.90
7240;DHT22;3661;53.288;10.458;2022-07-29T02:41:13;12.30;99.90
7240;DHT22;3661;53.288;10.458;2022-07-29T02:43:50;12.30;99.90
7240;DHT22;3661;53.288;10.458;2022-07-29T02:46:29;12.30;99.90
7240;DHT22;3661;53.288;10.458;2022-07-29T02:49:08;12.30;99.90
7240;DHT22;3661;53.288;10.458;2022-07-29T02:51:43;12.30;99.90
7240;DHT22;3661;53.288;10.458;2022-07-29T02:54:23;12.20;99.90
7240;DHT22;3661;53.288;10.458;2022-07-29T02:56:59;12.20;99.90
7240;DHT22;3661;53.288;10.458;2022-07-29T02:59:34;12.20;99.90
7240;DHT22;3661;53.288;10.458;2022-07-29T03:02:08;12.20;99.90
7240;DHT22;3661;53.288;10.458;2022-07-29T03:04:43;12.20;99.90
7240;DHT22;3661;53.288;10.458;2022-07-29T03:07:18;12.20;99.90
7240;DHT22;3661;53.288;10.458;2022-07-29T03:09:52;12.20;99.90
7240;DHT22;3661;53.288;10.458;2022-07-29T03:12:25;12.20;99.90
7240;DHT22;3661;53.288;10.458;2022-07-29T03:14:59;12.20;99.90
7240;DHT22;3661;53.288;10.458;2022-07-29T03:17:33;12.20;99.90
7240;DHT22;3661;53.288;10.458;2022-07-29T03:20:09;12.20;99.90
7240;DHT22;3661;53.288;10.458;2022-07-29T03:22:43;12.20;99.90
7240;DHT22;3661;53.288;10.458;2022-07-29T03:25:19;12.20;99.90
7240;DHT22;3661;53.288;10.458;2022-07-29T03:27:51;12.20;99.90
7240;DHT22;3661;53.288;10.458;2022-07-29T03:30:23;12.20;99.90
7240;DHT22;3661;53.288;10.458;2022-07-29T03:32:56;12.20;99.90
7240;DHT22;3661;53.288;10.458;2022-07-29T03:35:30;12.20;99.90
7240;DHT22;3661;53.288;10.458;2022-07-29T03:38:02;12.20;99.90
7240;DHT22;3661;53.288;10.458;2022-07-29T03:40:42;12.20;99.90
7240;DHT22;3661;53.288;10.458;2022-07-29T03:43:17;12.20;99.90
7240;DHT22;3661;53.288;10.458;2022-07-29T03:45:52;12.20;99.90
7240;DHT22;3661;53.288;10.458;2022-07-29T03:48:26;12.20;99.90
7240;DHT22;3661;53.288;10.458;2022-07-29T03:51:01;12.20;99.90
7240;DHT22;3661;53.288;10.458;2022-07-29T03:53:34;12.20;99.90
7240;DHT22;3661;53.288;10.458;2022-07-29T03:56:10;12.20;99.90
7240;DHT22;3661;53.288;10.458;2022-07-29T03:58:45;12.20;99.90
7240;DHT22;3661;53.288;10.458;2022-07-29T04:01:18;12.20;99.90
7240;DHT22;3661;53.288;10.458;2022-07-29T04:03:50;12.20;99.90
7240;DHT22;3661;53.288;10.458;2022-07-29T04:06:25;12.20;99.90
7240;DHT22;3661;53.288;10.458;2022-07-29T04:08:58;12.20;99.90
7240;DHT22;3661;53.288;10.458;2022-07-29T04:11:30;12.20;99.90
7240;DHT22;3661;53.288;10.458;2022-07-29T04:14:03;12.30;99.90
7240;DHT22;3661;53.288;10.458;2022-07-29T04:16:35;12.20;99.90
7240;DHT22;3661;53.288;10.458;2022-07-29T04:19:07;12.30;99.90
7240;DHT22;3661;53.288;10.458;2022-07-29T04:21:41;12.30;99.90
7240;DHT22;3661;53.288;10.458;2022-07-29T04:24:15;12.30;99.90
7240;DHT22;3661;53.288;10.458;2022-07-29T04:26:48;12.30;99.90
7240;DHT22;3661;53.288;10.458;2022-07-29T04:29:20;12.30;99.90
7240;DHT22;3661;53.288;10.458;2022-07-29T04:31:52;12.40;99.90
7240;DHT22;3661;53.288;10.458;2022-07-29T04:34:24;12.40;99.90
7240;DHT22;3661;53.288;10.458;2022-07-29T04:36:57;12.40;99.90
7240;DHT22;3661;53.288;10.458;2022-07-29T04:39:30;12.40;99.90
7240;DHT22;3661;53.288;10.458;2022-07-29T04:42:02;12.40;99.90
7240;DHT22;3661;53.288;10.458;2022-07-29T04:44:34;12.40;99.90
7240;DHT22;3661;53.288;10.458;2022-07-29T04:47:07;12.50;99.90
7240;DHT22;3661;53.288;10.458;2022-07-29T04:49:39;12.50;99.90
7240;DHT22;3661;53.288;10.458;2022-07-29T04:52:13;12.50;99.90
7240;DHT22;3661;53.288;10.458;2022-07-29T04:54:45;12.50;99.90
7240;DHT22;3661;53.288;10.458;2022-07-29T04:57:20;12.50;99.90
7240;DHT22;3661;53.288;10.458;2022-07-29T04:59:52;12.60;99.90
7240;DHT22;3661;53.288;10.458;2022-07-29T05:02:25;12.60;99.90
7240;DHT22;3661;53.288;10.458;2022-07-29T05:04:57;12.60;99.90
7240;DHT22;3661;53.288;10.458;2022-07-29T05:07:30;12.60;99.90
7240;DHT22;3661;53.288;10.458;2022-07-29T05:10:03;12.70;99.90
7240;DHT22;3661;53.288;10.458;2022-07-29T05:12:36;12.70;99.90
7240;DHT22;3661;53.288;10.458;2022-07-29T05:15:09;12.70;99.90
7240;DHT22;3661;53.288;10.458;2022-07-29T05:17:41;12.80;99.90
7240;DHT22;3661;53.288;10.458;2022-07-29T05:20:13;12.80;99.90
7240;DHT22;3661;53.288;10.458;2022-07-29T05:22:47;12.90;99.90
7240;DHT22;3661;53.288;10.458;2022-07-29T05:25:19;12.90;99.90
7240;DHT22;3661;53.288;10.458;2022-07-29T05:27:52;13.00;99.90
7240;DHT22;3661;53.288;10.458;2022-07-29T05:30:25;13.00;99.90
7240;DHT22;3661;53.288;10.458;2022-07-29T05:32:57;13.10;99.90
7240;DHT22;3661;53.288;10.458;2022-07-29T05:35:29;13.10;99.90
7240;DHT22;3661;53.288;10.458;2022-07-29T05:38:03;13.20;99.90
7240;DHT22;3661;53.288;10.458;2022-07-29T05:40:35;13.20;99.90
7240;DHT22;3661;53.288;10.458;2022-07-29T05:43:07;13.30;99.90
7240;DHT22;3661;53.288;10.458;2022-07-29T05:45:39;13.30;99.90
7240;DHT22;3661;53.288;10.458;2022-07-29T05:48:11;13.30;99.90
7240;DHT22;3661;53.288;10.458;2022-07-29T05:50:43;13.40;99.90
7240;DHT22;3661;53.288;10.458;2022-07-29T05:53:18;13.50;99.90
7240;DHT22;3661;53.288;10.458;2022-07-29T05:55:50;13.50;99.90
7240;DHT22;3661;53.288;10.458;2022-07-29T05:58:23;13.60;99.90
7240;DHT22;3661;53.288;10.458;2022-07-29T06:00:55;13.60;99.90
7240;DHT22;3661;53.288;10.458;2022-07-29T06:03:29;13.70;99.90
7240;DHT22;3661;53.288;10.458;2022-07-29T06:06:02;13.70;99.90
7240;DHT22;3661;53.288;10.458;2022-07-29T06:08:35;13.80;99.90
7240;DHT22;3661;53.288;10.458;2022-07-29T06:11:07;13.80;99.90
7240;DHT22;3661;53.288;10.458;2022-07-29T06:13:40;13.90;99.90
7240;DHT22;3661;53.288;10.458;2022-07-29T06:16:12;14.00;99.90
7240;DHT22;3661;53.288;10.458;2022-07-29T06:18:44;14.00;99.90
7240;DHT22;3661;53.288;10.458;2022-07-29T06:21:16;14.10;99.90
7240;DHT22;3661;53.288;10.458;2022-07-29T06:23:50;14.10;99.90
7240;DHT22;3661;53.288;10.458;2022-07-29T06:26:22;14.20;99.90
7240;DHT22;3661;53.288;10.458;2022-07-29T06:28:54;14.20;99.90
7240;DHT22;3661;53.288;10.458;2022-07-29T06:31:26;14.30;99.90
7240;DHT22;3661;53.288;10.458;2022-07-29T06:33:58;14.30;99.90
7240;DHT22;3661;53.288;10.458;2022-07-29T06:36:33;14.40;99.90
7240;DHT22;3661;53.288;10.458;2022-07-29T06:39:08;14.40;99.90
7240;DHT22;3661;53.288;10.458;2022-07-29T06:41:40;14.50;99.90
7240;DHT22;3661;53.288;10.458;2022-07-29T06:44:12;14.50;99.90
7240;DHT22;3661;53.288;10.458;2022-07-29T06:46:44;14.60;99.90
7240;DHT22;3661;53.288;10.458;2022-07-29T06:49:19;14.70;99.90
7240;DHT22;3661;53.288;10.458;2022-07-29T06:51:51;14.70;99.90
7240;DHT22;3661;53.288;10.458;2022-07-29T06:54:25;14.80;99.90
7240;DHT22;3661;53.288;10.458;2022-07-29T06:56:57;14.80;99.90
7240;DHT22;3661;53.288;10.458;2022-07-29T06:59:29;14.90;99.90
7240;DHT22;3661;53.288;10.458;2022-07-29T07:02:03;15.00;99.90
7240;DHT22;3661;53.288;10.458;2022-07-29T07:04:35;15.00;99.90
7240;DHT22;3661;53.288;10.458;2022-07-29T07:07:07;15.10;99.90
7240;DHT22;3661;53.288;10.458;2022-07-29T07:09:40;15.20;99.90
7240;DHT22;3661;53.288;10.458;2022-07-29T07:12:12;15.20;99.90
7240;DHT22;3661;53.288;10.458;2022-07-29T07:14:44;15.30;99.90
7240;DHT22;3661;53.288;10.458;2022-07-29T07:17:16;15.40;99.90
7240;DHT22;3661;53.288;10.458;2022-07-29T07:19:49;15.50;99.90
7240;DHT22;3661;53.288;10.458;2022-07-29T07:22:21;15.60;99.90
7240;DHT22;3661;53.288;10.458;2022-07-29T07:24:54;15.70;99.90
7240;DHT22;3661;53.288;10.458;2022-07-29T07:27:26;15.80;99.90
7240;DHT22;3661;53.288;10.458;2022-07-29T07:29:58;15.90;99.90
7240;DHT22;3661;53.288;10.458;2022-07-29T07:32:30;16.00;99.90
7240;DHT22;3661;53.288;10.458;2022-07-29T07:35:04;16.10;99.90
7240;DHT22;3661;53.288;10.458;2022-07-29T07:37:36;16.20;99.90
7240;DHT22;3661;53.288;10.458;2022-07-29T07:40:13;16.30;99.90
7240;DHT22;3661;53.288;10.458;2022-07-29T07:42:45;16.40;99.90
7240;DHT22;3661;53.288;10.458;2022-07-29T07:45:17;16.50;99.90
7240;DHT22;3661;53.288;10.458;2022-07-29T07:47:49;16.60;99.90
7240;DHT22;3661;53.288;10.458;2022-07-29T07:50:21;16.70;99.90
7240;DHT22;3661;53.288;10.458;2022-07-29T07:52:55;16.80;99.90
7240;DHT22;3661;53.288;10.458;2022-07-29T07:55:29;16.90;99.90
7240;DHT22;3661;53.288;10.458;2022-07-29T07:58:01;17.00;99.90
7240;DHT22;3661;53.288;10.458;2022-07-29T08:04:03;17.20;99.90
7240;DHT22;3661;53.288;10.458;2022-07-29T08:10:02;17.50;99.90
7240;DHT22;3661;53.288;10.458;2022-07-29T08:16:06;17.70;99.90
7240;DHT22;3661;53.288;10.458;2022-07-29T08:22:13;17.80;99.90
7240;DHT22;3661;53.288;10.458;2022-07-29T08:31:49;18.20;99.90
7240;DHT22;3661;53.288;10.458;2022-07-29T08:37:49;18.50;99.90
7240;DHT22;3661;53.288;10.458;2022-07-29T08:43:47;18.90;99.90
7240;DHT22;3661;53.288;10.458;2022-07-29T08:50:00;19.40;99.90
7240;DHT22;3661;53.288;10.458;2022-07-29T08:56:01;20.00;99.90
7240;DHT22;3661;53.288;10.458;2022-07-29T09:02:03;20.60;99.90
7240;DHT22;3661;53.288;10.458;2022-07-29T09:08:04;21.10;99.90
7240;DHT22;3661;53.288;10.458;2022-07-29T09:17:56;22.00;99.00
7240;DHT22;3661;53.288;10.458;2022-07-29T09:24:04;22.80;97.30
7240;DHT22;3661;53.288;10.458;2022-07-29T09:26:39;23.10;97.10
7240;DHT22;3661;53.288;10.458;2022-07-29T09:29:12;23.40;97.80
7240;DHT22;3661;53.288;10.458;2022-07-29T09:31:46;23.70;97.10
7240;DHT22;3661;53.288;10.458;2022-07-29T09:34:22;24.00;96.00
7240;DHT22;3661;53.288;10.458;2022-07-29T09:36:55;24.40;96.80
7240;DHT22;3661;53.288;10.458;2022-07-29T09:39:29;24.60;94.70
7240;DHT22;3661;53.288;10.458;2022-07-29T09:42:03;24.90;94.60
7240;DHT22;3661;53.288;10.458;2022-07-29T09:44:44;25.20;95.00
7240;DHT22;3661;53.288;10.458;2022-07-29T09:47:17;25.60;94.40
7240;DHT22;3661;53.288;10.458;2022-07-29T09:49:54;25.80;92.90
7240;DHT22;3661;53.288;10.458;2022-07-29T09:52:29;25.90;91.90
7240;DHT22;3661;53.288;10.458;2022-07-29T09:55:07;26.00;91.40
7240;DHT22;3661;53.288;10.458;2022-07-29T09:57:39;26.10;91.30
7240;DHT22;3661;53.288;10.458;2022-07-29T10:00:15;26.10;90.90
7240;DHT22;3661;53.288;10.458;2022-07-29T10:02:48;26.20;90.30
7240;DHT22;3661;53.288;10.458;2022-07-29T10:05:23;26.10;88.90
7240;DHT22;3661;53.288;10.458;2022-07-29T10:07:56;26.00;88.00
7240;DHT22;3661;53.288;10.458;2022-07-29T10:10:32;26.00;88.40
7240;DHT22;3661;53.288;10.458;2022-07-29T10:13:07;25.90;88.00
7240;DHT22;3661;53.288;10.458;2022-07-29T10:15:41;25.90;87.40
7240;DHT22;3661;53.288;10.458;2022-07-29T10:18:15;26.00;89.70
7240;DHT22;3661;53.288;10.458;2022-07-29T10:20:50;26.10;89.40
7240;DHT22;3661;53.288;10.458;2022-07-29T10:23:23;26.20;88.70
7240;DHT22;3661;53.288;10.458;2022-07-29T10:25:57;26.30;88.50
7240;DHT22;3661;53.288;10.458;2022-07-29T10:28:30;26.40;87.80
7240;DHT22;3661;53.288;10.458;2022-07-29T10:31:06;26.50;85.90
7240;DHT22;3661;53.288;10.458;2022-07-29T10:33:47;26.40;83.60
7240;DHT22;3661;53.288;10.458;2022-07-29T10:36:42;26.40;83.80
7240;DHT22;3661;53.288;10.458;2022-07-29T10:39:30;26.40;84.10
7240;DHT22;3661;53.288;10.458;2022-07-29T10:42:15;26.40;84.00
7240;DHT22;3661;53.288;10.458;2022-07-29T10:44:49;26.50;82.80
7240;DHT22;3661;53.288;10.458;2022-07-29T10:47:23;26.60;82.30
7240;DHT22;3661;53.288;10.458;2022-07-29T10:49:56;26.80;81.80
7240;DHT22;3661;53.288;10.458;2022-07-29T10:52:56;26.90;81.00
7240;DHT22;3661;53.288;10.458;2022-07-29T10:55:35;27.10;81.40
7240;DHT22;3661;53.288;10.458;2022-07-29T10:58:16;27.40;80.10
7240;DHT22;3661;53.288;10.458;2022-07-29T11:00:50;27.60;79.50
7240;DHT22;3661;53.288;10.458;2022-07-29T11:03:46;27.70;79.30
7240;DHT22;3661;53.288;10.458;2022-07-29T11:06:19;27.80;76.60
7240;DHT22;3661;53.288;10.458;2022-07-29T11:09:17;27.90;75.90
7240;DHT22;3661;53.288;10.458;2022-07-29T11:11:50;28.00;77.20
7240;DHT22;3661;53.288;10.458;2022-07-29T11:14:56;28.10;75.70
7240;DHT22;3661;53.288;10.458;2022-07-29T11:18:04;28.20;77.10
7240;DHT22;3661;53.288;10.458;2022-07-29T11:20:39;28.20;74.30
7240;DHT22;3661;53.288;10.458;2022-07-29T11:23:28;28.30;74.10
7240;DHT22;3661;53.288;10.458;2022-07-29T11:26:16;28.30;73.70
7240;DHT22;3661;53.288;10.458;2022-07-29T11:29:00;28.30;73.80
7240;DHT22;3661;53.288;10.458;2022-07-29T11:31:36;28.40;74.80
7240;DHT22;3661;53.288;10.458;2022-07-29T11:34:19;28.40;73.90
7240;DHT22;3661;53.288;10.458;2022-07-29T11:37:20;28.40;74.10
7240;DHT22;3661;53.288;10.458;2022-07-29T11:40:13;28.30;73.20
7240;DHT22;3661;53.288;10.458;2022-07-29T11:42:49;28.20;72.20
7240;DHT22;3661;53.288;10.458;2022-07-29T11:45:25;28.00;72.60
7240;DHT22;3661;53.288;10.458;2022-07-29T11:51:31;27.90;72.70
7240;DHT22;3661;53.288;10.458;2022-07-29T11:57:30;27.80;73.60
7240;DHT22;3661;53.288;10.458;2022-07-29T12:03:29;27.50;72.00
7240;DHT22;3661;53.288;10.458;2022-07-29T12:09:29;27.30;72.00
7240;DHT22;3661;53.288;10.458;2022-07-29T12:19:17;27.20;72.80
7240;DHT22;3661;53.288;10.458;2022-07-29T12:25:17;27.50;74.70
7240;DHT22;3661;53.288;10.458;2022-07-29T12:31:16;27.70;72.90
7240;DHT22;3661;53.288;10.458;2022-07-29T12:37:16;27.70;72.20
7240;DHT22;3661;53.288;10.458;2022-07-29T12:43:17;27.60;72.50
7240;DHT22;3661;53.288;10.458;2022-07-29T12:49:21;27.70;72.80
7240;DHT22;3661;53.288;10.458;2022-07-29T12:55:38;27.80;71.70
7240;DHT22;3661;53.288;10.458;2022-07-29T12:58:24;27.90;73.00
7240;DHT22;3661;53.288;10.458;2022-07-29T13:01:05;28.00;71.90
7240;DHT22;3661;53.288;10.458;2022-07-29T13:03:48;28.10;72.00
7240;DHT22;3661;53.288;10.458;2022-07-29T13:06:36;28.30;72.20
7240;DHT22;3661;53.288;10.458;2022-07-29T13:09:10;28.40;71.50
7240;DHT22;3661;53.288;10.458;2022-07-29T13:11:45;28.50;72.00
7240;DHT22;3661;53.288;10.458;2022-07-29T13:14:32;28.80;71.00
7240;DHT22;3661;53.288;10.458;2022-07-29T13:17:06;29.00;70.30
7240;DHT22;3661;53.288;10.458;2022-07-29T13:19:40;29.20;70.00
7240;DHT22;3661;53.288;10.458;2022-07-29T13:22:13;29.50;70.00
7240;DHT22;3661;53.288;10.458;2022-07-29T13:24:50;29.80;69.80
7240;DHT22;3661;53.288;10.458;2022-07-29T13:27:24;30.00;70.40
7240;DHT22;3661;53.288;10.458;2022-07-29T13:30:00;30.30;69.70
7240;DHT22;3661;53.288;10.458;2022-07-29T13:32:32;30.70;71.70
7240;DHT22;3661;53.288;10.458;2022-07-29T13:35:06;31.00;72.30
7240;DHT22;3661;53.288;10.458;2022-07-29T13:37:39;31.40;70.10
7240;DHT22;3661;53.288;10.458;2022-07-29T13:40:12;31.70;70.90
7240;DHT22;3661;53.288;10.458;2022-07-29T13:42:44;32.00;66.10
7240;DHT22;3661;53.288;10.458;2022-07-29T13:45:18;31.90;65.40
7240;DHT22;3661;53.288;10.458;2022-07-29T13:47:50;31.90;64.80
7240;DHT22;3661;53.288;10.458;2022-07-29T13:50:22;31.80;66.10
7240;DHT22;3661;53.288;10.458;2022-07-29T13:52:55;31.70;64.20
7240;DHT22;3661;53.288;10.458;2022-07-29T13:55:27;31.60;63.40
7240;DHT22;3661;53.288;10.458;2022-07-29T13:58:00;31.40;62.50
7240;DHT22;3661;53.288;10.458;2022-07-29T14:00:33;31.30;63.60
7240;DHT22;3661;53.288;10.458;2022-07-29T14:03:07;31.40;64.50
7240;DHT22;3661;53.288;10.458;2022-07-29T14:05:40;31.40;63.60
7240;DHT22;3661;53.288;10.458;2022-07-29T14:08:12;31.50;63.30
7240;DHT22;3661;53.288;10.458;2022-07-29T14:10:44;31.60;64.50
7240;DHT22;3661;53.288;10.458;2022-07-29T14:13:16;31.70;62.60
7240;DHT22;3661;53.288;10.458;2022-07-29T14:15:50;31.80;63.20
7240;DHT22;3661;53.288;10.458;2022-07-29T14:18:22;32.00;63.60
7240;DHT22;3661;53.288;10.458;2022-07-29T14:20:54;32.10;62.70
7240;DHT22;3661;53.288;10.458;2022-07-29T14:23:26;32.20;63.90
7240;DHT22;3661;53.288;10.458;2022-07-29T14:25:58;32.50;65.10
7240;DHT22;3661;53.288;10.458;2022-07-29T14:28:30;32.80;63.40
7240;DHT22;3661;53.288;10.458;2022-07-29T14:31:07;33.00;63.10
7240;DHT22;3661;53.288;10.458;2022-07-29T14:33:40;33.00;61.20
7240;DHT22;3661;53.288;10.458;2022-07-29T14:36:13;32.80;61.50
7240;DHT22;3661;53.288;10.458;2022-07-29T14:38:45;32.80;61.40
7240;DHT22;3661;53.288;10.458;2022-07-29T14:41:17;32.80;61.00
7240;DHT22;3661;53.288;10.458;2022-07-29T14:43:49;32.80;61.20
7240;DHT22;3661;53.288;10.458;2022-07-29T14:46:24;32.90;61.30
7240;DHT22;3661;53.288;10.458;2022-07-29T14:48:56;33.10;61.80
7240;DHT22;3661;53.288;10.458;2022-07-29T14:51:28;33.10;59.60
7240;DHT22;3661;53.288;10.458;2022-07-29T14:54:00;33.10;60.20
7240;DHT22;3661;53.288;10.458;2022-07-29T14:56:32;33.00;59.50
7240;DHT22;3661;53.288;10.458;2022-07-29T14:59:04;32.90;58.50
7240;DHT22;3661;53.288;10.458;2022-07-29T15:01:38;32.80;58.80
7240;DHT22;3661;53.288;10.458;2022-07-29T15:04:10;32.70;59.00
7240;DHT22;3661;53.288;10.458;2022-07-29T15:06:42;32.60;59.00
7240;DHT22;3661;53.288;10.458;2022-07-29T15:09:14;32.60;59.20
7240;DHT22;3661;53.288;10.458;2022-07-29T15:11:46;32.70;59.40
7240;DHT22;3661;53.288;10.458;2022-07-29T15:14:18;32.70;59.20
7240;DHT22;3661;53.288;10.458;2022-07-29T15:16:52;32.60;59.10
7240;DHT22;3661;53.288;10.458;2022-07-29T15:19:24;32.50;58.90
7240;DHT22;3661;53.288;10.458;2022-07-29T15:21:56;32.30;59.30
7240;DHT22;3661;53.288;10.458;2022-07-29T15:24:28;32.20;59.10
7240;DHT22;3661;53.288;10.458;2022-07-29T15:27:00;32.00;59.30
7240;DHT22;3661;53.288;10.458;2022-07-29T15:29:32;31.80;59.50
7240;DHT22;3661;53.288;10.458;2022-07-29T15:32:06;31.60;59.90
7240;DHT22;3661;53.288;10.458;2022-07-29T15:34:39;31.50;60.00
7240;DHT22;3661;53.288;10.458;2022-07-29T15:37:11;31.40;59.40
7240;DHT22;3661;53.288;10.458;2022-07-29T15:39:43;31.10;59.20
7240;DHT22;3661;53.288;10.458;2022-07-29T15:42:15;31.00;59.40
7240;DHT22;3661;53.288;10.458;2022-07-29T15:44:47;30.90;59.40
7240;DHT22;3661;53.288;10.458;2022-07-29T15:47:21;30.80;59.50
7240;DHT22;3661;53.288;10.458;2022-07-29T15:49:53;30.80;60.60
7240;DHT22;3661;53.288;10.458;2022-07-29T15:52:25;30.80;62.00
7240;DHT22;3661;53.288;10.458;2022-07-29T15:54:57;30.80;64.00
7240;DHT22;3661;53.288;10.458;2022-07-29T15:57:29;30.70;65.30
7240;DHT22;3661;53.288;10.458;2022-07-29T16:00:03;30.70;66.10
7240;DHT22;3661;53.288;10.458;2022-07-29T16:02:37;30.70;67.40
7240;DHT22;3661;53.288;10.458;2022-07-29T16:05:09;30.70;68.10
7240;DHT22;3661;53.288;10.458;2022-07-29T16:07:42;30.70;69.10
7240;DHT22;3661;53.288;10.458;2022-07-29T16:10:14;30.50;70.40
7240;DHT22;3661;53.288;10.458;2022-07-29T16:12:46;30.50;71.20
7240;DHT22;3661;53.288;10.458;2022-07-29T16:15:18;30.40;72.00
7240;DHT22;3661;53.288;10.458;2022-07-29T16:17:52;30.40;72.60
7240;DHT22;3661;53.288;10.458;2022-07-29T16:20:24;30.30;72.80
7240;DHT22;3661;53.288;10.458;2022-07-29T16:22:56;30.30;73.40
7240;DHT22;3661;53.288;10.458;2022-07-29T16:25:28;30.10;73.50
7240;DHT22;3661;53.288;10.458;2022-07-29T16:28:00;29.90;73.70
7240;DHT22;3661;53.288;10.458;2022-07-29T16:30:32;29.80;73.90
7240;DHT22;3661;53.288;10.458;2022-07-29T16:33:06;29.60;74.00
7240;DHT22;3661;53.288;10.458;2022-07-29T16:35:41;29.40;74.40
7240;DHT22;3661;53.288;10.458;2022-07-29T16:38:13;29.30;74.80
7240;DHT22;3661;53.288;10.458;2022-07-29T16:40:45;29.20;75.00
7240;DHT22;3661;53.288;10.458;2022-07-29T16:43:17;29.10;75.10
7240;DHT22;3661;53.288;10.458;2022-07-29T16:45:49;28.90;75.40
7240;DHT22;3661;53.288;10.458;2022-07-29T16:48:23;28.80;75.80
7240;DHT22;3661;53.288;10.458;2022-07-29T16:50:55;28.70;76.40
7240;DHT22;3661;53.288;10.458;2022-07-29T16:53:27;28.60;76.90
7240;DHT22;3661;53.288;10.458;2022-07-29T16:55:59;28.50;77.30
7240;DHT22;3661;53.288;10.458;2022-07-29T16:58:31;28.30;77.50
7240;DHT22;3661;53.288;10.458;2022-07-29T17:01:03;28.10;77.90
7240;DHT22;3661;53.288;10.458;2022-07-29T17:03:37;28.00;78.40
7240;DHT22;3661;53.288;10.458;2022-07-29T17:06:30;27.90;78.70
7240;DHT22;3661;53.288;10.458;2022-07-29T17:09:05;27.70;79.20
7240;DHT22;3661;53.288;10.458;2022-07-29T17:11:38;27.60;79.50
7240;DHT22;3661;53.288;10.458;2022-07-29T17:14:11;27.50;80.00
7240;DHT22;3661;53.288;10.458;2022-07-29T17:16:43;27.30;80.50
7240;DHT22;3661;53.288;10.458;2022-07-29T17:19:17;27.20;80.90
7240;DHT22;3661;53.288;10.458;2022-07-29T17:21:49;27.10;81.40
7240;DHT22;3661;53.288;10.458;2022-07-29T17:24:21;27.00;82.50
7240;DHT22;3661;53.288;10.458;2022-07-29T17:26:53;26.90;82.20
7240;DHT22;3661;53.288;10.458;2022-07-29T17:29:25;26.80;82.70
7240;DHT22;3661;53.288;10.458;2022-07-29T17:31:57;26.70;82.90
7240;DHT22;3661;53.288;10.458;2022-07-29T17:34:31;26.50;83.30
7240;DHT22;3661;53.288;10.458;2022-07-29T17:37:03;26.40;83.60
7240;DHT22;3661;53.288;10.458;2022-07-29T17:39:36;26.30;83.90
7240;DHT22;3661;53.288;10.458;2022-07-29T17:42:12;26.30;84.20
7240;DHT22;3661;53.288;10.458;2022-07-29T17:44:44;26.10;84.50
7240;DHT22;3661;53.288;10.458;2022-07-29T17:47:16;26.00;84.80
7240;DHT22;3661;53.288;10.458;2022-07-29T17:49:50;26.00;85.20
7240;DHT22;3661;53.288;10.458;2022-07-29T17:52:23;25.80;85.60
7240;DHT22;3661;53.288;10.458;2022-07-29T17:54:55;25.70;86.10
7240;DHT22;3661;53.288;10.458;2022-07-29T17:57:27;25.60;86.50
7240;DHT22;3661;53.288;10.458;2022-07-29T18:00:00;25.50;86.90
7240;DHT22;3661;53.288;10.458;2022-07-29T18:02:32;25.40;87.30
7240;DHT22;3661;53.288;10.458;2022-07-29T18:05:06;25.30;87.60
7240;DHT22;3661;53.288;10.458;2022-07-29T18:07:38;25.20;87.90